Time;durP1;ratioP1;P1;durP2;ratioP2;P2;SDS_P1;SDS_P2;PMS_P1;PMS_P2;Temp;Humidity;BMP_temperature;BMP_pressure;BME280_temperature;BME280_humidity;BME280_pressure;Samples;Min_cycle;Max_cycle;Signal;HPM_P1;HPM_P2
2021/10/30 00:00:04;;;;;;;;;;;15.00;85.40;15.20;98753.00;;;;336181;28;86961;-90
2021/10/30 00:00:16;;;;;;;;;;;15.00;85.30;15.10;98747.00;;;;334937;28;90226;-89
2021/10/30 00:00:28;;;;;;;;;;;15.00;85.30;15.30;98758.00;;;;337288;28;87918;-89
2021/10/30 00:00:40;;;;;;;;;;;15.00;85.30;15.30;98757.00;;;;337784;28;88705;-89
2021/10/30 00:00:54;;;;;;;;;;;15.00;85.30;15.30;98758.00;;;;337309;28;86016;-89
2021/10/30 00:01:07;;;;;;;;;;;15.00;85.40;15.30;98758.00;;;;337739;28;87478;-89
2021/10/30 00:01:20;;;;;;;;;;;15.00;85.50;15.20;98760.00;;;;336235;28;87871;-89
2021/10/30 00:01:32;;;;;;;;;;;15.00;85.40;15.20;98754.00;;;;336429;28;87951;-90
2021/10/30 00:01:43;;;;;;;;;;;15.00;85.50;15.20;98744.00;;;;336105;28;87064;-89
2021/10/30 00:01:55;;;;;;;;;;;15.00;85.50;15.20;98750.00;;;;337602;28;90854;-89
2021/10/30 00:02:07;;;;;;;;;;;15.00;85.60;15.20;98752.00;;;;334878;29;86957;-89
2021/10/30 00:02:20;;;;;;;;;;;15.00;85.60;15.20;98753.00;;;;334842;28;91251;-90
2021/10/30 00:02:32;;;;;;;;;;;14.90;85.60;15.20;98745.00;;;;337446;28;86127;-89
2021/10/30 00:02:44;;;;;;;;;;;15.00;85.40;15.20;98749.00;;;;335118;29;87917;-88
2021/10/30 00:02:56;;;;;;;;;;;15.00;85.50;15.20;98749.00;;;;334872;29;86634;-89
2021/10/30 00:03:08;;;;;;;;;;;15.00;85.50;15.20;98751.00;;;;337657;28;89213;-89
2021/10/30 00:03:21;;;;;;;;;;;15.00;85.30;15.30;98754.00;;;;338205;28;87019;-89
2021/10/30 00:03:33;;;;;;;;;;;15.00;85.30;15.30;98759.00;;;;336316;28;90208;-89
2021/10/30 00:03:45;;;;;;;;;;;15.00;85.20;15.30;98753.00;;;;337597;28;86898;-89
2021/10/30 00:03:57;;;;;;;;;;;15.00;85.20;15.40;98759.00;;;;337667;28;89677;-89
2021/10/30 00:04:08;;;;;;;;;;;15.00;85.10;15.30;98756.00;;;;338361;28;86987;-89
2021/10/30 00:04:20;;;;;;;;;;;15.00;85.00;15.30;98757.00;;;;338990;28;88417;-90
2021/10/30 00:04:32;;;;;;;;;;;15.00;85.00;15.40;98757.00;;;;337332;28;86933;-90
2021/10/30 00:04:44;;;;;;;;;;;15.00;85.10;15.30;98754.00;;;;336483;28;87088;-88
2021/10/30 00:04:56;;;;;;;;;;;15.00;85.00;15.30;98752.00;;;;336177;28;86003;-89
2021/10/30 00:05:09;;;;;;;;;;;15.00;85.00;15.20;98753.00;;;;337754;28;90074;-89
2021/10/30 00:05:21;;;;;;;;;;;15.00;84.90;15.20;98747.00;;;;337441;28;86858;-89
2021/10/30 00:05:33;;;;;;;;;;;15.00;84.90;15.20;98759.00;;;;335133;29;88219;-89
2021/10/30 00:05:45;;;;;;;;;;;15.00;84.90;15.20;98751.00;;;;334991;29;86723;-89
2021/10/30 00:05:57;;;;;;;;;;;15.00;85.00;15.20;98752.00;;;;338893;28;89303;-89
2021/10/30 00:06:09;;;;;;;;;;;15.00;85.20;15.20;98756.00;;;;337440;28;86856;-89
2021/10/30 00:06:21;;;;;;;;;;;15.00;85.40;15.20;98752.00;;;;338923;28;91537;-89
2021/10/30 00:06:32;;;;;;;;;;;14.90;85.20;15.20;98745.00;;;;337603;28;86801;-89
2021/10/30 00:06:44;;;;;;;;;;;15.00;85.30;15.20;98747.00;;;;336253;28;90545;-89
2021/10/30 00:06:56;;;;;;;;;;;15.00;85.20;15.20;98748.00;;;;336707;28;86105;-89
2021/10/30 00:07:08;;;;;;;;;;;14.90;85.10;15.20;98746.00;;;;336401;28;87062;-89
2021/10/30 00:07:20;;;;;;;;;;;15.00;85.10;15.20;98750.00;;;;336161;29;86939;-89
2021/10/30 00:07:31;;;;;;;;;;;15.00;84.90;15.20;98739.00;;;;338810;28;88270;-89
2021/10/30 00:07:43;;;;;;;;;;;14.90;84.80;15.20;98742.00;;;;338798;28;88135;-89
2021/10/30 00:07:55;;;;;;;;;;;14.90;84.70;15.20;98740.00;;;;335255;29;86686;-89
2021/10/30 00:08:07;;;;;;;;;;;15.00;84.70;15.20;98736.00;;;;337459;28;86731;-90
2021/10/30 00:08:19;;;;;;;;;;;14.90;84.60;15.20;98737.00;;;;337728;28;87889;-90
2021/10/30 00:08:30;;;;;;;;;;;14.90;84.60;15.20;98744.00;;;;337468;28;87949;-89
2021/10/30 00:08:42;;;;;;;;;;;14.90;84.60;15.30;98745.00;;;;337794;28;88302;-89
2021/10/30 00:08:55;;;;;;;;;;;15.00;84.70;15.30;98745.00;;;;337592;28;86146;-89
2021/10/30 00:09:07;;;;;;;;;;;15.00;84.80;15.30;98741.00;;;;337800;28;86339;-89
2021/10/30 00:09:18;;;;;;;;;;;14.90;84.80;15.30;98744.00;;;;336572;28;86245;-89
2021/10/30 00:09:30;;;;;;;;;;;14.90;84.90;15.30;98741.00;;;;335029;28;88485;-89
2021/10/30 00:09:42;;;;;;;;;;;15.00;85.00;15.30;98746.00;;;;338944;28;87085;-90
2021/10/30 00:09:54;;;;;;;;;;;15.00;85.00;15.30;98739.00;;;;336549;28;87291;-89
2021/10/30 00:10:06;;;;;;;;;;;15.00;85.00;15.30;98734.00;;;;337207;28;86962;-90
2021/10/30 00:10:18;;;;;;;;;;;15.00;85.00;15.30;98744.00;;;;336343;28;88920;-90
2021/10/30 00:10:30;;;;;;;;;;;15.00;84.90;15.30;98742.00;;;;337538;28;87180;-89
2021/10/30 00:10:43;;;;;;;;;;;15.00;85.00;15.20;98740.00;;;;335177;28;90736;-89
2021/10/30 00:10:58;;;;;;;;;;;15.00;85.00;15.20;98737.00;;;;336225;28;85460;-90
2021/10/30 00:11:11;;;;;;;;;;;15.00;85.10;15.20;98741.00;;;;335224;29;87217;-89
2021/10/30 00:11:23;;;;;;;;;;;15.00;85.30;15.10;98734.00;;;;334880;29;86792;-89
2021/10/30 00:11:34;;;;;;;;;;;15.00;85.40;15.10;98728.00;;;;336522;28;88698;-89
2021/10/30 00:11:46;;;;;;;;;;;14.90;85.10;15.10;98732.00;;;;337585;28;85969;-89
2021/10/30 00:11:58;;;;;;;;;;;14.90;85.00;15.20;98732.00;;;;336476;28;90899;-89
2021/10/30 00:12:10;;;;;;;;;;;14.90;85.00;15.20;98731.00;;;;333592;29;86878;-89
2021/10/30 00:12:21;;;;;;;;;;;14.90;85.10;15.10;98729.00;;;;338089;28;87662;-89
2021/10/30 00:12:33;;;;;;;;;;;14.90;85.20;15.10;98727.00;;;;338810;28;86778;-89
2021/10/30 00:12:45;;;;;;;;;;;14.90;85.60;15.00;98723.00;;;;337725;28;86338;-89
2021/10/30 00:12:57;;;;;;;;;;;14.90;85.70;15.00;98731.00;;;;336288;28;86828;-89
2021/10/30 00:13:09;;;;;;;;;;;14.90;85.50;15.10;98728.00;;;;337645;28;88242;-89
2021/10/30 00:13:21;;;;;;;;;;;14.90;85.20;15.10;98727.00;;;;337427;28;87601;-89
2021/10/30 00:13:33;;;;;;;;;;;14.90;85.10;15.10;98729.00;;;;335195;29;88715;-90
2021/10/30 00:13:44;;;;;;;;;;;14.90;85.00;15.20;98733.00;;;;336064;28;87654;-89
2021/10/30 00:13:56;;;;;;;;;;;14.90;85.00;15.20;98729.00;;;;335111;29;88794;-89
2021/10/30 00:14:08;;;;;;;;;;;14.90;84.90;15.20;98731.00;;;;335873;28;87676;-89
2021/10/30 00:14:20;;;;;;;;;;;14.90;84.90;15.30;98732.00;;;;337538;28;91355;-89
2021/10/30 00:14:31;;;;;;;;;;;14.90;84.90;15.20;98727.00;;;;336228;28;87643;-88
2021/10/30 00:14:43;;;;;;;;;;;14.90;84.80;15.20;98730.00;;;;336501;28;88925;-89
2021/10/30 00:14:55;;;;;;;;;;;14.90;84.80;15.20;98726.00;;;;334904;28;86409;-89
2021/10/30 00:15:07;;;;;;;;;;;14.90;84.80;15.20;98725.00;;;;336423;29;86699;-89
2021/10/30 00:15:19;;;;;;;;;;;14.90;84.80;15.10;98718.00;;;;338156;28;86808;-89
2021/10/30 00:15:31;;;;;;;;;;;14.90;84.90;15.10;98718.00;;;;336188;28;91169;-89
2021/10/30 00:15:44;;;;;;;;;;;14.90;84.80;15.10;98715.00;;;;337347;28;87777;-89
2021/10/30 00:15:57;;;;;;;;;;;14.90;84.90;15.10;98717.00;;;;337808;28;87077;-89
2021/10/30 00:16:09;;;;;;;;;;;14.90;85.10;15.10;98715.00;;;;337490;28;86900;-89
2021/10/30 00:16:21;;;;;;;;;;;14.90;85.00;15.10;98718.00;;;;337495;28;91086;-89
2021/10/30 00:16:33;;;;;;;;;;;14.90;85.00;15.10;98723.00;;;;336114;28;85866;-89
2021/10/30 00:16:45;;;;;;;;;;;14.90;85.00;15.00;98718.00;;;;337657;28;87977;-89
2021/10/30 00:16:56;;;;;;;;;;;14.90;85.00;15.00;98718.00;;;;336255;29;86122;-90
2021/10/30 00:17:10;;;;;;;;;;;14.90;85.00;15.00;98718.00;;;;337725;28;87068;-89
2021/10/30 00:17:21;;;;;;;;;;;14.90;85.10;15.00;98721.00;;;;335963;28;86801;-87
2021/10/30 00:17:33;;;;;;;;;;;14.90;85.10;15.10;98720.00;;;;333729;29;88779;-89
2021/10/30 00:17:45;;;;;;;;;;;14.90;85.20;15.10;98715.00;;;;336207;28;87088;-89
2021/10/30 00:17:57;;;;;;;;;;;14.90;85.10;15.10;98714.00;;;;335211;28;89277;-89
2021/10/30 00:18:08;;;;;;;;;;;14.90;85.00;15.20;98711.00;;;;337363;28;86876;-89
2021/10/30 00:18:20;;;;;;;;;;;14.90;85.00;15.30;98708.00;;;;336346;28;88640;-89
2021/10/30 00:18:32;;;;;;;;;;;14.90;85.00;15.20;98712.00;;;;333587;28;86664;-90
2021/10/30 00:18:44;;;;;;;;;;;14.90;84.90;15.20;98711.00;;;;336377;28;88032;-89
2021/10/30 00:18:55;;;;;;;;;;;14.90;84.90;15.10;98707.00;;;;336151;28;87011;-89
2021/10/30 00:19:07;;;;;;;;;;;14.90;84.90;15.20;98707.00;;;;335131;29;86943;-89
2021/10/30 00:19:19;;;;;;;;;;;14.90;84.90;15.20;98701.00;;;;335014;29;86978;-89
2021/10/30 00:19:31;;;;;;;;;;;14.90;84.90;15.20;98700.00;;;;336312;28;88876;-89
2021/10/30 00:19:42;;;;;;;;;;;14.90;85.00;15.20;98704.00;;;;337415;28;86113;-90
2021/10/30 00:19:54;;;;;;;;;;;14.90;85.20;15.20;98699.00;;;;339112;28;87167;-89
2021/10/30 00:20:06;;;;;;;;;;;14.90;85.20;15.20;98702.00;;;;337216;28;88466;-89
2021/10/30 00:20:18;;;;;;;;;;;14.90;85.00;15.20;98695.00;;;;337825;28;88178;-90
2021/10/30 00:20:30;;;;;;;;;;;14.90;84.80;15.20;98697.00;;;;337329;28;86655;-89
2021/10/30 00:20:42;;;;;;;;;;;14.90;84.80;15.20;98698.00;;;;337597;28;89673;-89
2021/10/30 00:20:54;;;;;;;;;;;14.90;84.80;15.20;98696.00;;;;337540;28;85985;-89
2021/10/30 00:21:06;;;;;;;;;;;14.90;84.90;15.20;98699.00;;;;335304;29;86365;-90
2021/10/30 00:21:18;;;;;;;;;;;14.90;85.00;15.20;98693.00;;;;336523;28;86782;-89
2021/10/30 00:21:30;;;;;;;;;;;14.90;85.00;15.20;98692.00;;;;338990;28;88577;-89
2021/10/30 00:21:42;;;;;;;;;;;14.90;85.20;15.30;98687.00;;;;338862;28;86718;-89
2021/10/30 00:21:54;;;;;;;;;;;14.90;85.70;15.20;98690.00;;;;337691;28;89781;-89
2021/10/30 00:22:10;;;;;;;;;;;14.90;85.00;15.20;98687.00;;;;338604;28;87045;-89
2021/10/30 00:22:23;;;;;;;;;;;14.90;85.00;15.20;98690.00;;;;336412;28;88193;-89
2021/10/30 00:22:35;;;;;;;;;;;14.90;85.10;15.20;98693.00;;;;336298;28;85902;-90
2021/10/30 00:22:46;;;;;;;;;;;14.90;85.10;15.30;98689.00;;;;336383;28;88155;-88
2021/10/30 00:22:58;;;;;;;;;;;14.90;85.00;15.10;98689.00;;;;338908;28;85215;-89
2021/10/30 00:23:10;;;;;;;;;;;14.90;85.80;15.20;98685.00;;;;337769;28;87020;-89
2021/10/30 00:23:22;;;;;;;;;;;14.90;85.20;15.20;98682.00;;;;337333;28;86253;-89
2021/10/30 00:23:34;;;;;;;;;;;14.90;85.10;15.20;98676.00;;;;335060;29;88041;-89
2021/10/30 00:23:46;;;;;;;;;;;14.90;85.10;15.10;98679.00;;;;337577;28;86882;-89
2021/10/30 00:23:58;;;;;;;;;;;14.90;85.80;15.10;98679.00;;;;337812;28;88769;-89
2021/10/30 00:24:10;;;;;;;;;;;14.90;85.20;15.10;98683.00;;;;334555;28;87463;-89
2021/10/30 00:24:21;;;;;;;;;;;14.90;85.20;15.10;98687.00;;;;337524;28;87241;-89
2021/10/30 00:24:33;;;;;;;;;;;14.90;85.20;15.10;98685.00;;;;334891;29;86011;-89
2021/10/30 00:24:45;;;;;;;;;;;14.90;85.20;15.10;98684.00;;;;336128;28;87809;-89
2021/10/30 00:24:57;;;;;;;;;;;14.90;85.20;15.10;98691.00;;;;334745;29;86028;-89
2021/10/30 00:25:09;;;;;;;;;;;14.90;85.10;15.00;98693.00;;;;337783;28;86708;-89
2021/10/30 00:25:21;;;;;;;;;;;14.90;85.30;15.00;98690.00;;;;334934;28;87756;-89
2021/10/30 00:25:32;;;;;;;;;;;14.90;85.60;15.10;98695.00;;;;337822;28;87420;-89
2021/10/30 00:25:44;;;;;;;;;;;14.90;85.70;15.10;98698.00;;;;338980;28;87639;-89
2021/10/30 00:25:56;;;;;;;;;;;14.90;85.50;15.10;98696.00;;;;337944;28;87749;-87
2021/10/30 00:26:08;;;;;;;;;;;14.90;85.30;15.10;98695.00;;;;333876;29;86077;-89
2021/10/30 00:26:20;;;;;;;;;;;14.90;85.20;15.10;98704.00;;;;336342;28;90679;-89
2021/10/30 00:26:31;;;;;;;;;;;14.80;85.10;15.10;98703.00;;;;335004;28;88092;-89
2021/10/30 00:26:43;;;;;;;;;;;14.90;85.20;15.10;98695.00;;;;339213;28;90779;-89
2021/10/30 00:26:55;;;;;;;;;;;14.80;85.10;15.10;98699.00;;;;335120;28;87054;-89
2021/10/30 00:27:08;;;;;;;;;;;14.80;85.20;15.10;98701.00;;;;337805;28;90150;-89
2021/10/30 00:27:20;;;;;;;;;;;14.90;85.30;15.00;98699.00;;;;336050;28;86767;-89
2021/10/30 00:27:32;;;;;;;;;;;14.80;85.30;15.00;98703.00;;;;332594;29;89116;-89
2021/10/30 00:27:43;;;;;;;;;;;14.80;85.40;15.10;98692.00;;;;335142;29;86759;-89
2021/10/30 00:27:55;;;;;;;;;;;14.80;85.40;15.10;98695.00;;;;337356;28;87432;-89
2021/10/30 00:28:07;;;;;;;;;;;14.80;85.40;15.10;98694.00;;;;336335;28;86778;-89
2021/10/30 00:28:18;;;;;;;;;;;14.80;85.30;15.00;98703.00;;;;335248;29;87291;-89
2021/10/30 00:28:30;;;;;;;;;;;14.80;85.30;15.00;98700.00;;;;336176;28;86797;-89
2021/10/30 00:28:43;;;;;;;;;;;14.80;85.50;15.00;98697.00;;;;336674;28;87542;-89
2021/10/30 00:28:54;;;;;;;;;;;14.80;85.20;15.10;98695.00;;;;335105;28;85408;-89
2021/10/30 00:29:06;;;;;;;;;;;14.80;85.00;15.10;98693.00;;;;337809;28;88344;-89
2021/10/30 00:29:18;;;;;;;;;;;14.80;85.00;15.10;98699.00;;;;336337;28;86773;-89
2021/10/30 00:29:30;;;;;;;;;;;14.80;85.00;15.10;98695.00;;;;337343;28;87239;-90
2021/10/30 00:29:42;;;;;;;;;;;14.80;85.00;15.10;98697.00;;;;336242;28;86880;-89
2021/10/30 00:29:53;;;;;;;;;;;14.80;84.90;15.10;98693.00;;;;336529;28;89750;-89
2021/10/30 00:30:06;;;;;;;;;;;14.80;84.90;15.10;98696.00;;;;336339;28;86808;-89
2021/10/30 00:30:18;;;;;;;;;;;14.80;85.00;15.10;98693.00;;;;335358;28;90010;-89
2021/10/30 00:30:29;;;;;;;;;;;14.80;85.10;15.20;98691.00;;;;337517;28;86850;-89
2021/10/30 00:30:41;;;;;;;;;;;14.80;85.10;15.20;98691.00;;;;339209;28;86371;-89
2021/10/30 00:30:53;;;;;;;;;;;14.80;85.10;15.10;98686.00;;;;337511;28;88483;-89
2021/10/30 00:31:06;;;;;;;;;;;14.80;85.20;15.10;98686.00;;;;336518;28;89161;-89
2021/10/30 00:31:18;;;;;;;;;;;14.80;85.10;15.10;98682.00;;;;333704;29;86849;-90
2021/10/30 00:31:30;;;;;;;;;;;14.80;85.20;15.10;98687.00;;;;339105;28;90964;-89
2021/10/30 00:31:42;;;;;;;;;;;14.80;85.20;15.20;98690.00;;;;339001;28;86976;-89
2021/10/30 00:31:54;;;;;;;;;;;14.80;85.10;15.10;98682.00;;;;340425;28;89622;-89
2021/10/30 00:32:06;;;;;;;;;;;14.80;85.20;15.20;98687.00;;;;336080;28;87802;-89
2021/10/30 00:32:18;;;;;;;;;;;14.80;85.10;15.10;98684.00;;;;336628;28;87539;-89
2021/10/30 00:32:30;;;;;;;;;;;14.80;85.10;15.10;98676.00;;;;337699;28;86182;-90
2021/10/30 00:32:42;;;;;;;;;;;14.80;85.00;15.10;98682.00;;;;339072;28;90915;-89
2021/10/30 00:32:53;;;;;;;;;;;14.80;85.00;15.10;98686.00;;;;337722;28;87136;-89
2021/10/30 00:33:05;;;;;;;;;;;14.80;85.10;15.10;98681.00;;;;339107;28;90059;-89
2021/10/30 00:33:17;;;;;;;;;;;14.80;85.10;15.10;98681.00;;;;344834;28;86707;-89
2021/10/30 00:33:29;;;;;;;;;;;14.80;85.10;15.10;98680.00;;;;338866;28;90763;-89
2021/10/30 00:33:41;;;;;;;;;;;14.80;85.10;15.10;98677.00;;;;334739;28;86350;-89
2021/10/30 00:33:52;;;;;;;;;;;14.80;85.00;15.10;98676.00;;;;335354;29;88245;-89
2021/10/30 00:34:04;;;;;;;;;;;14.80;85.00;15.20;98677.00;;;;334988;28;86883;-89
2021/10/30 00:34:16;;;;;;;;;;;14.80;85.00;15.20;98676.00;;;;336419;28;89875;-89
2021/10/30 00:34:28;;;;;;;;;;;14.80;85.00;15.10;98673.00;;;;334945;29;86974;-89
2021/10/30 00:34:40;;;;;;;;;;;14.80;85.10;15.10;98669.00;;;;337987;28;87177;-90
2021/10/30 00:34:52;;;;;;;;;;;14.80;85.20;15.20;98678.00;;;;335059;29;86191;-89
2021/10/30 00:35:04;;;;;;;;;;;14.90;85.30;15.20;98679.00;;;;336432;28;89798;-89
2021/10/30 00:35:16;;;;;;;;;;;14.80;85.20;15.10;98668.00;;;;334921;28;87062;-89
2021/10/30 00:35:28;;;;;;;;;;;14.80;85.20;15.10;98668.00;;;;336531;28;87700;-89
2021/10/30 00:35:39;;;;;;;;;;;14.80;85.20;15.10;98665.00;;;;337752;28;87581;-89
2021/10/30 00:35:51;;;;;;;;;;;14.80;85.20;15.10;98668.00;;;;336728;28;88025;-90
2021/10/30 00:36:03;;;;;;;;;;;14.80;85.30;15.10;98669.00;;;;336436;28;86875;-89
2021/10/30 00:36:15;;;;;;;;;;;14.80;85.50;15.10;98673.00;;;;335339;28;87346;-89
2021/10/30 00:36:27;;;;;;;;;;;14.80;86.10;15.00;98667.00;;;;335122;29;85979;-89
2021/10/30 00:36:39;;;;;;;;;;;14.80;85.60;15.10;98663.00;;;;337754;28;90770;-89
2021/10/30 00:36:51;;;;;;;;;;;14.80;85.60;15.10;98657.00;;;;336241;28;88221;-89
2021/10/30 00:37:03;;;;;;;;;;;14.80;85.60;15.10;98669.00;;;;336459;28;88149;-89
2021/10/30 00:37:14;;;;;;;;;;;14.80;85.50;15.10;98666.00;;;;336451;28;86971;-87
2021/10/30 00:37:26;;;;;;;;;;;14.80;85.40;15.20;98672.00;;;;336522;28;88787;-89
2021/10/30 00:37:38;;;;;;;;;;;14.80;85.40;15.10;98676.00;;;;336194;28;85993;-89
2021/10/30 00:37:50;;;;;;;;;;;14.80;85.40;15.20;98674.00;;;;336687;28;85851;-89
2021/10/30 00:38:01;;;;;;;;;;;14.80;85.30;15.20;98668.00;;;;336358;28;86760;-89
2021/10/30 00:38:13;;;;;;;;;;;14.80;85.20;15.10;98676.00;;;;336636;28;87286;-89
2021/10/30 00:38:25;;;;;;;;;;;14.80;85.20;15.20;98661.00;;;;338942;28;86910;-89
2021/10/30 00:38:37;;;;;;;;;;;14.80;85.20;15.10;98670.00;;;;336650;28;88526;-89
2021/10/30 00:38:49;;;;;;;;;;;14.80;85.30;15.10;98664.00;;;;337496;28;87120;-89
2021/10/30 00:39:02;;;;;;;;;;;14.80;85.50;15.10;98667.00;;;;336692;28;86631;-89
2021/10/30 00:39:14;;;;;;;;;;;14.80;85.70;15.10;98666.00;;;;336460;28;86735;-90
2021/10/30 00:39:26;;;;;;;;;;;14.80;85.60;15.00;98664.00;;;;337837;28;88206;-89
2021/10/30 00:39:39;;;;;;;;;;;14.80;85.80;15.00;98661.00;;;;332475;29;86824;-89
2021/10/30 00:39:52;;;;;;;;;;;14.80;86.00;15.00;98669.00;;;;336619;28;87716;-90
2021/10/30 00:40:04;;;;;;;;;;;14.80;86.00;15.00;98680.00;;;;335147;29;86867;-88
2021/10/30 00:40:16;;;;;;;;;;;14.80;86.00;15.00;98667.00;;;;334818;28;91238;-90
2021/10/30 00:40:27;;;;;;;;;;;14.80;85.80;15.00;98667.00;;;;335091;29;86815;-90
2021/10/30 00:40:39;;;;;;;;;;;14.80;86.10;15.00;98664.00;;;;337966;28;88720;-89
2021/10/30 00:40:51;;;;;;;;;;;14.80;86.20;15.00;98663.00;;;;337594;28;86242;-89
2021/10/30 00:41:04;;;;;;;;;;;14.80;86.00;15.00;98663.00;;;;337746;28;88145;-89
2021/10/30 00:41:17;;;;;;;;;;;14.80;85.80;15.00;98665.00;;;;336411;28;85907;-89
2021/10/30 00:41:29;;;;;;;;;;;14.80;85.70;15.00;98660.00;;;;336474;28;90669;-89
2021/10/30 00:41:47;;;;;;;;;;;14.80;85.70;15.00;98665.00;;;;338814;28;87036;-89
2021/10/30 00:41:59;;;;;;;;;;;14.80;85.70;15.00;98663.00;;;;339007;28;91355;-89
2021/10/30 00:42:12;;;;;;;;;;;14.80;85.90;15.00;98669.00;;;;337606;28;86938;-89
2021/10/30 00:42:24;;;;;;;;;;;14.80;86.00;15.10;98665.00;;;;337601;28;87624;-89
2021/10/30 00:42:36;;;;;;;;;;;14.80;85.90;15.10;98657.00;;;;336333;28;86940;-89
2021/10/30 00:42:47;;;;;;;;;;;14.80;85.80;15.10;98668.00;;;;333882;28;88024;-89
2021/10/30 00:42:59;;;;;;;;;;;14.80;85.70;15.10;98664.00;;;;336360;28;86315;-88
2021/10/30 00:43:11;;;;;;;;;;;14.80;85.80;15.00;98670.00;;;;336716;28;86287;-89
2021/10/30 00:43:23;;;;;;;;;;;14.80;86.10;15.00;98664.00;;;;336364;28;86829;-89
2021/10/30 00:43:35;;;;;;;;;;;14.80;86.20;15.00;98656.00;;;;339222;28;87879;-90
2021/10/30 00:43:48;;;;;;;;;;;14.80;86.00;15.00;98661.00;;;;337642;28;86900;-90
2021/10/30 00:44:12;;;;;;;;;;;14.80;85.90;15.10;98666.00;;;;339226;28;87585;-89
2021/10/30 00:44:23;;;;;;;;;;;14.80;85.80;15.10;98668.00;;;;336215;28;86814;-89
2021/10/30 00:44:35;;;;;;;;;;;14.80;85.80;15.10;98665.00;;;;339056;28;89235;-89
2021/10/30 00:44:47;;;;;;;;;;;14.80;86.00;15.10;98657.00;;;;338866;28;86629;-90
2021/10/30 00:44:59;;;;;;;;;;;14.80;86.10;15.10;98670.00;;;;339259;28;87051;-89
2021/10/30 00:45:10;;;;;;;;;;;14.80;86.20;15.10;98661.00;;;;334974;28;87160;-90
2021/10/30 00:45:22;;;;;;;;;;;14.80;86.10;15.10;98660.00;;;;337386;28;89256;-89
2021/10/30 00:45:34;;;;;;;;;;;14.80;86.00;15.10;98668.00;;;;338879;28;86868;-89
2021/10/30 00:45:47;;;;;;;;;;;14.80;86.00;15.10;98655.00;;;;335327;29;89192;-89
2021/10/30 00:45:59;;;;;;;;;;;14.80;85.90;15.10;98656.00;;;;336374;28;86857;-89
2021/10/30 00:46:11;;;;;;;;;;;14.80;85.80;15.10;98660.00;;;;337808;28;87898;-89
2021/10/30 00:46:22;;;;;;;;;;;14.80;85.80;15.10;98655.00;;;;336340;28;86056;-89
2021/10/30 00:46:34;;;;;;;;;;;14.80;86.00;15.10;98652.00;;;;344876;28;87158;-89
2021/10/30 00:46:48;;;;;;;;;;;14.80;86.10;15.10;98656.00;;;;345943;28;86709;-89
2021/10/30 00:47:00;;;;;;;;;;;14.80;86.00;15.10;98652.00;;;;336503;28;88648;-89
2021/10/30 00:47:13;;;;;;;;;;;14.80;86.00;15.10;98656.00;;;;337316;28;86130;-87
2021/10/30 00:47:25;;;;;;;;;;;14.80;86.30;15.10;98653.00;;;;338425;28;87108;-88
2021/10/30 00:47:37;;;;;;;;;;;14.80;86.20;15.10;98658.00;;;;335000;29;87965;-90
2021/10/30 00:47:49;;;;;;;;;;;14.80;86.20;15.20;98653.00;;;;337744;28;89528;-89
2021/10/30 00:48:01;;;;;;;;;;;14.80;86.20;15.20;98653.00;;;;336410;28;86829;-89
2021/10/30 00:48:16;;;;;;;;;;;14.80;86.20;15.20;98656.00;;;;337768;28;90877;-90
2021/10/30 00:48:28;;;;;;;;;;;14.80;86.40;15.10;98651.00;;;;340292;28;87004;-90
2021/10/30 00:48:40;;;;;;;;;;;14.80;86.50;15.10;98644.00;;;;340410;28;91260;-89
2021/10/30 00:48:52;;;;;;;;;;;14.80;86.50;15.10;98655.00;;;;336511;28;88577;-89
2021/10/30 00:49:04;;;;;;;;;;;14.80;86.40;15.10;98658.00;;;;338021;28;87082;-90
2021/10/30 00:49:16;;;;;;;;;;;14.80;86.40;15.00;98648.00;;;;337729;28;85210;-89
2021/10/30 00:49:28;;;;;;;;;;;14.80;86.60;15.10;98653.00;;;;337845;28;90149;-89
2021/10/30 00:49:43;;;;;;;;;;;14.80;86.70;15.20;98651.00;;;;341829;28;86941;-90
2021/10/30 00:49:55;;;;;;;;;;;14.80;86.60;15.20;98656.00;;;;335227;29;88610;-90
2021/10/30 00:50:07;;;;;;;;;;;14.80;86.60;15.20;98660.00;;;;337325;28;88489;-89
2021/10/30 00:50:19;;;;;;;;;;;14.80;86.50;15.20;98656.00;;;;337897;28;87318;-90
2021/10/30 00:50:31;;;;;;;;;;;14.80;86.60;15.20;98650.00;;;;334901;28;86903;-89
2021/10/30 00:50:43;;;;;;;;;;;14.80;86.50;15.10;98650.00;;;;335259;29;87445;-89
2021/10/30 00:50:55;;;;;;;;;;;14.90;86.70;15.10;98652.00;;;;337605;28;86034;-90
2021/10/30 00:51:08;;;;;;;;;;;14.80;86.70;15.10;98650.00;;;;337765;28;90704;-89
2021/10/30 00:51:20;;;;;;;;;;;14.90;86.80;15.10;98651.00;;;;334901;28;85593;-89
2021/10/30 00:51:31;;;;;;;;;;;14.80;86.70;15.10;98655.00;;;;336419;28;87735;-89
2021/10/30 00:51:44;;;;;;;;;;;14.90;86.60;15.20;98661.00;;;;336293;28;86901;-89
2021/10/30 00:51:56;;;;;;;;;;;14.90;86.60;15.10;98650.00;;;;335006;29;87061;-89
2021/10/30 00:52:09;;;;;;;;;;;14.80;86.70;15.10;98656.00;;;;338978;28;86803;-89
2021/10/30 00:52:21;;;;;;;;;;;14.80;86.70;15.10;98652.00;;;;340276;28;90427;-89
2021/10/30 00:52:32;;;;;;;;;;;14.90;86.70;15.10;98658.00;;;;336421;28;86014;-89
2021/10/30 00:52:44;;;;;;;;;;;14.80;86.60;15.20;98655.00;;;;337806;28;88685;-89
2021/10/30 00:52:56;;;;;;;;;;;14.90;86.50;15.10;98651.00;;;;339966;28;87375;-89
2021/10/30 00:53:08;;;;;;;;;;;14.90;86.50;15.10;98654.00;;;;337721;28;89685;-89
2021/10/30 00:53:20;;;;;;;;;;;14.90;86.60;15.10;98653.00;;;;337759;28;85941;-90
2021/10/30 00:53:32;;;;;;;;;;;14.90;86.70;15.10;98656.00;;;;339009;28;89807;-89
2021/10/30 00:53:44;;;;;;;;;;;14.90;87.00;15.10;98658.00;;;;337699;28;86567;-90
2021/10/30 00:53:56;;;;;;;;;;;14.90;86.80;15.20;98660.00;;;;337948;28;88393;-89
2021/10/30 00:54:08;;;;;;;;;;;14.90;86.80;15.20;98656.00;;;;336261;28;86702;-89
2021/10/30 00:54:21;;;;;;;;;;;14.90;86.80;15.10;98657.00;;;;336194;28;88727;-89
2021/10/30 00:54:32;;;;;;;;;;;14.90;86.80;15.00;98653.00;;;;333777;29;86768;-90
2021/10/30 00:54:46;;;;;;;;;;;14.90;87.30;15.00;98654.00;;;;336659;28;87115;-90
2021/10/30 00:54:58;;;;;;;;;;;14.80;87.50;15.00;98655.00;;;;336202;28;87772;-89
2021/10/30 00:55:10;;;;;;;;;;;14.80;87.70;15.00;98644.00;;;;339133;28;89844;-88
2021/10/30 00:55:22;;;;;;;;;;;14.80;87.20;15.00;98656.00;;;;338923;28;86188;-89
2021/10/30 00:55:34;;;;;;;;;;;14.80;87.00;15.00;98656.00;;;;335303;29;87521;-89
2021/10/30 00:55:46;;;;;;;;;;;14.80;87.10;15.00;98655.00;;;;337511;28;86995;-90
2021/10/30 00:55:59;;;;;;;;;;;14.80;87.20;15.00;98658.00;;;;336661;28;88590;-90
2021/10/30 00:56:11;;;;;;;;;;;14.80;87.20;15.00;98655.00;;;;337496;28;86180;-89
2021/10/30 00:56:23;;;;;;;;;;;14.80;87.10;15.00;98658.00;;;;334231;29;87412;-89
2021/10/30 00:56:35;;;;;;;;;;;14.80;87.00;15.10;98664.00;;;;336746;28;86003;-89
2021/10/30 00:56:47;;;;;;;;;;;14.80;86.80;15.10;98656.00;;;;334063;28;89257;-89
2021/10/30 00:56:59;;;;;;;;;;;14.80;86.90;15.00;98656.00;;;;337684;28;86818;-89
2021/10/30 00:57:11;;;;;;;;;;;14.80;86.80;15.00;98646.00;;;;336957;28;88825;-89
2021/10/30 00:57:26;;;;;;;;;;;14.80;87.00;15.00;98654.00;;;;337538;28;86421;-89
2021/10/30 00:57:40;;;;;;;;;;;14.80;87.00;15.00;98658.00;;;;339398;28;88534;-90
2021/10/30 00:57:52;;;;;;;;;;;14.80;87.10;15.10;98656.00;;;;336989;28;87024;-89
2021/10/30 00:58:04;;;;;;;;;;;14.80;87.00;15.00;98655.00;;;;339329;28;87055;-88
2021/10/30 00:58:16;;;;;;;;;;;14.80;87.30;15.00;98651.00;;;;337716;28;88026;-90
2021/10/30 00:58:35;;;;;;;;;;;14.80;87.40;15.10;98658.00;;;;335602;29;87908;-90
2021/10/30 00:58:47;;;;;;;;;;;14.80;87.70;15.10;98659.00;;;;338978;28;86956;-89
2021/10/30 00:59:01;;;;;;;;;;;14.80;87.20;15.00;98648.00;;;;336404;28;90418;-89
2021/10/30 00:59:14;;;;;;;;;;;14.80;87.30;15.10;98655.00;;;;337789;28;85993;-89
2021/10/30 00:59:26;;;;;;;;;;;14.80;87.10;15.10;98650.00;;;;338002;28;85869;-89
2021/10/30 00:59:38;;;;;;;;;;;14.80;87.10;15.00;98657.00;;;;336285;28;86788;-90
2021/10/30 00:59:50;;;;;;;;;;;14.80;87.10;15.00;98654.00;;;;337715;28;90063;-89
2021/10/30 01:00:03;;;;;;;;;;;14.80;87.20;15.00;98656.00;;;;336361;28;86875;-90